sensor_id;sensor_type;location;lat;lon;timestamp;P1;durP1;ratioP1;P2;durP2;ratioP2
62572;SDS011;48626;51.678;5.806;2023-08-24T00:02:17;7.90;;;4.82;;
62572;SDS011;48626;51.678;5.806;2023-08-24T00:04:42;9.18;;;4.90;;
62572;SDS011;48626;51.678;5.806;2023-08-24T00:07:08;8.13;;;4.88;;
62572;SDS011;48626;51.678;5.806;2023-08-24T00:09:34;11.30;;;5.03;;
62572;SDS011;48626;51.678;5.806;2023-08-24T00:12:05;7.45;;;4.80;;
62572;SDS011;48626;51.678;5.806;2023-08-24T00:14:34;7.68;;;4.18;;
62572;SDS011;48626;51.678;5.806;2023-08-24T00:17:17;10.80;;;5.20;;
62572;SDS011;48626;51.678;5.806;2023-08-24T00:19:48;7.82;;;4.70;;
62572;SDS011;48626;51.678;5.806;2023-08-24T00:22:18;8.10;;;4.95;;
62572;SDS011;48626;51.678;5.806;2023-08-24T00:24:44;8.02;;;4.90;;
62572;SDS011;48626;51.678;5.806;2023-08-24T00:27:09;12.15;;;4.93;;
62572;SDS011;48626;51.678;5.806;2023-08-24T00:29:45;8.15;;;5.00;;
62572;SDS011;48626;51.678;5.806;2023-08-24T00:32:24;9.50;;;5.10;;
62572;SDS011;48626;51.678;5.806;2023-08-24T00:34:55;8.75;;;5.13;;
62572;SDS011;48626;51.678;5.806;2023-08-24T00:37:23;7.90;;;4.78;;
62572;SDS011;48626;51.678;5.806;2023-08-24T00:39:55;11.48;;;4.97;;
62572;SDS011;48626;51.678;5.806;2023-08-24T00:42:26;10.25;;;4.95;;
62572;SDS011;48626;51.678;5.806;2023-08-24T00:44:54;8.52;;;4.93;;
62572;SDS011;48626;51.678;5.806;2023-08-24T00:47:22;13.90;;;4.45;;
62572;SDS011;48626;51.678;5.806;2023-08-24T00:49:48;6.28;;;4.50;;
62572;SDS011;48626;51.678;5.806;2023-08-24T00:52:16;7.47;;;4.82;;
62572;SDS011;48626;51.678;5.806;2023-08-24T00:54:47;10.43;;;5.50;;
62572;SDS011;48626;51.678;5.806;2023-08-24T00:57:17;12.35;;;5.13;;
62572;SDS011;48626;51.678;5.806;2023-08-24T00:59:48;7.35;;;4.60;;
62572;SDS011;48626;51.678;5.806;2023-08-24T01:02:14;8.93;;;4.85;;
62572;SDS011;48626;51.678;5.806;2023-08-24T01:04:42;7.05;;;4.65;;
62572;SDS011;48626;51.678;5.806;2023-08-24T01:07:11;8.47;;;4.90;;
62572;SDS011;48626;51.678;5.806;2023-08-24T01:09:40;7.72;;;4.45;;
62572;SDS011;48626;51.678;5.806;2023-08-24T01:15:26;6.82;;;4.82;;
62572;SDS011;48626;51.678;5.806;2023-08-24T01:17:53;8.63;;;4.55;;
62572;SDS011;48626;51.678;5.806;2023-08-24T01:20:27;10.27;;;4.53;;
62572;SDS011;48626;51.678;5.806;2023-08-24T01:28:11;8.07;;;4.50;;
62572;SDS011;48626;51.678;5.806;2023-08-24T01:30:55;10.38;;;4.95;;
62572;SDS011;48626;51.678;5.806;2023-08-24T01:33:23;12.73;;;5.25;;
62572;SDS011;48626;51.678;5.806;2023-08-24T01:35:50;8.00;;;4.53;;
62572;SDS011;48626;51.678;5.806;2023-08-24T01:38:18;8.30;;;4.78;;
62572;SDS011;48626;51.678;5.806;2023-08-24T01:43:33;11.30;;;4.90;;
62572;SDS011;48626;51.678;5.806;2023-08-24T01:46:06;8.13;;;4.45;;
62572;SDS011;48626;51.678;5.806;2023-08-24T01:48:36;6.80;;;4.50;;
62572;SDS011;48626;51.678;5.806;2023-08-24T01:51:11;8.00;;;5.07;;
62572;SDS011;48626;51.678;5.806;2023-08-24T01:53:39;10.32;;;4.85;;
62572;SDS011;48626;51.678;5.806;2023-08-24T01:56:15;6.95;;;4.95;;
62572;SDS011;48626;51.678;5.806;2023-08-24T01:58:43;8.15;;;5.07;;
62572;SDS011;48626;51.678;5.806;2023-08-24T02:01:12;9.25;;;5.38;;
62572;SDS011;48626;51.678;5.806;2023-08-24T02:03:40;7.90;;;5.22;;
62572;SDS011;48626;51.678;5.806;2023-08-24T02:06:08;15.38;;;6.28;;
62572;SDS011;48626;51.678;5.806;2023-08-24T02:08:39;14.05;;;5.88;;
62572;SDS011;48626;51.678;5.806;2023-08-24T02:11:05;12.07;;;6.03;;
62572;SDS011;48626;51.678;5.806;2023-08-24T02:13:34;15.02;;;6.53;;
62572;SDS011;48626;51.678;5.806;2023-08-24T02:16:06;13.95;;;5.90;;
62572;SDS011;48626;51.678;5.806;2023-08-24T02:18:43;10.20;;;5.90;;
62572;SDS011;48626;51.678;5.806;2023-08-24T02:21:10;9.02;;;5.68;;
62572;SDS011;48626;51.678;5.806;2023-08-24T02:23:39;8.82;;;6.10;;
62572;SDS011;48626;51.678;5.806;2023-08-24T02:26:07;9.98;;;6.03;;
62572;SDS011;48626;51.678;5.806;2023-08-24T02:28:34;9.40;;;5.60;;
62572;SDS011;48626;51.678;5.806;2023-08-24T02:31:09;10.65;;;5.53;;
62572;SDS011;48626;51.678;5.806;2023-08-24T02:33:44;9.93;;;5.70;;
62572;SDS011;48626;51.678;5.806;2023-08-24T02:36:18;13.40;;;6.05;;
62572;SDS011;48626;51.678;5.806;2023-08-24T02:38:46;11.95;;;5.57;;
62572;SDS011;48626;51.678;5.806;2023-08-24T02:41:17;10.18;;;6.20;;
62572;SDS011;48626;51.678;5.806;2023-08-24T02:43:46;10.57;;;5.90;;
62572;SDS011;48626;51.678;5.806;2023-08-24T02:46:20;11.43;;;5.70;;
62572;SDS011;48626;51.678;5.806;2023-08-24T02:48:48;10.68;;;6.40;;
62572;SDS011;48626;51.678;5.806;2023-08-24T02:51:14;13.30;;;6.78;;
62572;SDS011;48626;51.678;5.806;2023-08-24T02:53:51;8.90;;;5.63;;
62572;SDS011;48626;51.678;5.806;2023-08-24T02:56:19;11.95;;;5.80;;
62572;SDS011;48626;51.678;5.806;2023-08-24T02:58:47;10.52;;;6.15;;
62572;SDS011;48626;51.678;5.806;2023-08-24T03:01:23;9.65;;;5.40;;
62572;SDS011;48626;51.678;5.806;2023-08-24T03:03:54;10.75;;;6.32;;
62572;SDS011;48626;51.678;5.806;2023-08-24T03:06:20;8.25;;;6.22;;
62572;SDS011;48626;51.678;5.806;2023-08-24T03:08:49;10.85;;;6.68;;
62572;SDS011;48626;51.678;5.806;2023-08-24T03:11:17;11.02;;;6.60;;
62572;SDS011;48626;51.678;5.806;2023-08-24T03:14:00;9.95;;;6.20;;
62572;SDS011;48626;51.678;5.806;2023-08-24T03:16:32;10.20;;;6.47;;
62572;SDS011;48626;51.678;5.806;2023-08-24T03:19:20;12.43;;;6.90;;
62572;SDS011;48626;51.678;5.806;2023-08-24T03:21:58;12.07;;;6.88;;
62572;SDS011;48626;51.678;5.806;2023-08-24T03:24:27;11.70;;;7.68;;
62572;SDS011;48626;51.678;5.806;2023-08-24T03:27:13;12.02;;;7.68;;
62572;SDS011;48626;51.678;5.806;2023-08-24T03:39:57;17.08;;;9.50;;
62572;SDS011;48626;51.678;5.806;2023-08-24T05:14:03;21.42;;;12.75;;
62572;SDS011;48626;51.678;5.806;2023-08-24T05:16:29;23.92;;;13.90;;
62572;SDS011;48626;51.678;5.806;2023-08-24T05:18:55;23.08;;;14.05;;
62572;SDS011;48626;51.678;5.806;2023-08-24T05:21:20;22.13;;;14.30;;
62572;SDS011;48626;51.678;5.806;2023-08-24T05:23:46;24.50;;;14.30;;
62572;SDS011;48626;51.678;5.806;2023-08-24T05:26:12;26.08;;;14.65;;
62572;SDS011;48626;51.678;5.806;2023-08-24T05:28:37;23.80;;;14.82;;
62572;SDS011;48626;51.678;5.806;2023-08-24T05:31:03;21.40;;;13.07;;
62572;SDS011;48626;51.678;5.806;2023-08-24T05:33:28;27.65;;;14.32;;
62572;SDS011;48626;51.678;5.806;2023-08-24T05:35:56;22.90;;;14.57;;
62572;SDS011;48626;51.678;5.806;2023-08-24T05:38:22;19.15;;;14.10;;
62572;SDS011;48626;51.678;5.806;2023-08-24T05:40:48;23.77;;;15.13;;
62572;SDS011;48626;51.678;5.806;2023-08-24T05:43:14;23.13;;;14.80;;
62572;SDS011;48626;51.678;5.806;2023-08-24T05:45:40;21.38;;;13.43;;
62572;SDS011;48626;51.678;5.806;2023-08-24T05:48:08;19.92;;;14.15;;
62572;SDS011;48626;51.678;5.806;2023-08-24T05:50:34;18.95;;;14.02;;
62572;SDS011;48626;51.678;5.806;2023-08-24T05:53:02;21.30;;;14.70;;
62572;SDS011;48626;51.678;5.806;2023-08-24T05:55:28;24.20;;;14.25;;
62572;SDS011;48626;51.678;5.806;2023-08-24T05:57:54;24.38;;;15.50;;
62572;SDS011;48626;51.678;5.806;2023-08-24T06:00:20;27.17;;;14.73;;
62572;SDS011;48626;51.678;5.806;2023-08-24T06:02:47;20.42;;;15.55;;
62572;SDS011;48626;51.678;5.806;2023-08-24T06:05:13;22.58;;;15.25;;
62572;SDS011;48626;51.678;5.806;2023-08-24T06:07:38;21.52;;;15.35;;
62572;SDS011;48626;51.678;5.806;2023-08-24T06:10:04;21.13;;;15.23;;
62572;SDS011;48626;51.678;5.806;2023-08-24T06:12:30;25.30;;;15.10;;
62572;SDS011;48626;51.678;5.806;2023-08-24T06:14:56;25.30;;;15.70;;
62572;SDS011;48626;51.678;5.806;2023-08-24T06:17:22;25.30;;;15.38;;
62572;SDS011;48626;51.678;5.806;2023-08-24T06:19:47;21.23;;;15.20;;
62572;SDS011;48626;51.678;5.806;2023-08-24T06:22:13;24.75;;;16.02;;
62572;SDS011;48626;51.678;5.806;2023-08-24T06:24:39;23.45;;;15.52;;
62572;SDS011;48626;51.678;5.806;2023-08-24T06:27:07;22.90;;;15.10;;
62572;SDS011;48626;51.678;5.806;2023-08-24T06:29:34;31.67;;;15.93;;
62572;SDS011;48626;51.678;5.806;2023-08-24T06:32:00;26.73;;;15.18;;
62572;SDS011;48626;51.678;5.806;2023-08-24T06:34:26;32.40;;;15.65;;
62572;SDS011;48626;51.678;5.806;2023-08-24T06:36:52;23.20;;;15.30;;
62572;SDS011;48626;51.678;5.806;2023-08-24T06:39:18;22.85;;;16.48;;
62572;SDS011;48626;51.678;5.806;2023-08-24T06:41:44;25.02;;;15.80;;
62572;SDS011;48626;51.678;5.806;2023-08-24T06:44:10;23.25;;;15.32;;
62572;SDS011;48626;51.678;5.806;2023-08-24T06:46:36;24.38;;;15.60;;
62572;SDS011;48626;51.678;5.806;2023-08-24T06:49:02;24.98;;;16.15;;
62572;SDS011;48626;51.678;5.806;2023-08-24T06:51:30;24.95;;;15.88;;
62572;SDS011;48626;51.678;5.806;2023-08-24T06:53:55;23.63;;;15.20;;
62572;SDS011;48626;51.678;5.806;2023-08-24T06:56:21;22.70;;;15.38;;
62572;SDS011;48626;51.678;5.806;2023-08-24T06:58:47;24.27;;;15.30;;
62572;SDS011;48626;51.678;5.806;2023-08-24T07:01:13;26.63;;;15.80;;
62572;SDS011;48626;51.678;5.806;2023-08-24T07:03:39;22.20;;;15.00;;
62572;SDS011;48626;51.678;5.806;2023-08-24T07:06:05;27.63;;;15.48;;
62572;SDS011;48626;51.678;5.806;2023-08-24T07:08:32;26.40;;;15.98;;
62572;SDS011;48626;51.678;5.806;2023-08-24T07:10:58;23.80;;;15.13;;
62572;SDS011;48626;51.678;5.806;2023-08-24T07:13:24;27.02;;;15.75;;
62572;SDS011;48626;51.678;5.806;2023-08-24T07:15:51;27.83;;;14.40;;
62572;SDS011;48626;51.678;5.806;2023-08-24T07:18:17;29.70;;;16.23;;
62572;SDS011;48626;51.678;5.806;2023-08-24T07:20:43;24.92;;;14.63;;
62572;SDS011;48626;51.678;5.806;2023-08-24T07:23:09;22.23;;;14.93;;
62572;SDS011;48626;51.678;5.806;2023-08-24T07:25:35;21.73;;;14.63;;
62572;SDS011;48626;51.678;5.806;2023-08-24T07:28:00;23.67;;;15.10;;
62572;SDS011;48626;51.678;5.806;2023-08-24T07:30:28;22.27;;;14.65;;
62572;SDS011;48626;51.678;5.806;2023-08-24T07:32:54;21.70;;;14.88;;
62572;SDS011;48626;51.678;5.806;2023-08-24T07:35:20;25.17;;;14.10;;
62572;SDS011;48626;51.678;5.806;2023-08-24T07:37:49;25.38;;;14.48;;
62572;SDS011;48626;51.678;5.806;2023-08-24T07:40:14;23.52;;;14.15;;
62572;SDS011;48626;51.678;5.806;2023-08-24T07:42:48;24.55;;;15.18;;
62572;SDS011;48626;51.678;5.806;2023-08-24T07:45:16;23.05;;;14.07;;
62572;SDS011;48626;51.678;5.806;2023-08-24T07:47:42;21.98;;;14.05;;
62572;SDS011;48626;51.678;5.806;2023-08-24T07:50:08;22.27;;;14.27;;
62572;SDS011;48626;51.678;5.806;2023-08-24T07:52:36;23.92;;;14.38;;
62572;SDS011;48626;51.678;5.806;2023-08-24T07:55:02;25.38;;;13.93;;
62572;SDS011;48626;51.678;5.806;2023-08-24T07:57:29;19.23;;;13.15;;
62572;SDS011;48626;51.678;5.806;2023-08-24T07:59:56;19.35;;;13.25;;
62572;SDS011;48626;51.678;5.806;2023-08-24T08:02:22;19.40;;;12.63;;
62572;SDS011;48626;51.678;5.806;2023-08-24T08:04:48;17.67;;;12.63;;
62572;SDS011;48626;51.678;5.806;2023-08-24T08:07:14;17.90;;;12.95;;
62572;SDS011;48626;51.678;5.806;2023-08-24T08:09:40;19.80;;;14.07;;
62572;SDS011;48626;51.678;5.806;2023-08-24T08:12:05;21.15;;;14.77;;
62572;SDS011;48626;51.678;5.806;2023-08-24T08:14:32;23.13;;;12.77;;
62572;SDS011;48626;51.678;5.806;2023-08-24T08:16:57;25.23;;;12.45;;
62572;SDS011;48626;51.678;5.806;2023-08-24T08:19:23;20.95;;;12.32;;
62572;SDS011;48626;51.678;5.806;2023-08-24T08:21:51;19.80;;;12.48;;
62572;SDS011;48626;51.678;5.806;2023-08-24T08:24:17;20.80;;;12.48;;
62572;SDS011;48626;51.678;5.806;2023-08-24T08:26:43;18.30;;;12.02;;
62572;SDS011;48626;51.678;5.806;2023-08-24T08:29:08;21.35;;;13.57;;
62572;SDS011;48626;51.678;5.806;2023-08-24T08:31:34;20.88;;;12.20;;
62572;SDS011;48626;51.678;5.806;2023-08-24T08:34:00;23.15;;;11.98;;
62572;SDS011;48626;51.678;5.806;2023-08-24T08:36:26;20.85;;;12.35;;
62572;SDS011;48626;51.678;5.806;2023-08-24T08:38:52;18.50;;;11.50;;
62572;SDS011;48626;51.678;5.806;2023-08-24T08:41:19;20.67;;;10.75;;
62572;SDS011;48626;51.678;5.806;2023-08-24T08:43:48;20.20;;;11.80;;
62572;SDS011;48626;51.678;5.806;2023-08-24T08:46:14;21.70;;;11.65;;
62572;SDS011;48626;51.678;5.806;2023-08-24T08:48:41;17.00;;;10.60;;
62572;SDS011;48626;51.678;5.806;2023-08-24T08:51:08;18.73;;;10.80;;
62572;SDS011;48626;51.678;5.806;2023-08-24T08:53:35;17.52;;;10.90;;
62572;SDS011;48626;51.678;5.806;2023-08-24T08:56:01;19.83;;;10.65;;
62572;SDS011;48626;51.678;5.806;2023-08-24T08:58:31;16.40;;;10.93;;
62572;SDS011;48626;51.678;5.806;2023-08-24T09:00:59;24.38;;;11.13;;
62572;SDS011;48626;51.678;5.806;2023-08-24T09:03:28;18.23;;;9.77;;
62572;SDS011;48626;51.678;5.806;2023-08-24T09:05:56;16.85;;;10.38;;
62572;SDS011;48626;51.678;5.806;2023-08-24T09:08:22;17.23;;;10.10;;
62572;SDS011;48626;51.678;5.806;2023-08-24T09:10:48;14.05;;;9.93;;
62572;SDS011;48626;51.678;5.806;2023-08-24T09:13:15;15.05;;;10.10;;
62572;SDS011;48626;51.678;5.806;2023-08-24T09:15:42;18.77;;;10.43;;
62572;SDS011;48626;51.678;5.806;2023-08-24T09:18:08;22.15;;;10.27;;
62572;SDS011;48626;51.678;5.806;2023-08-24T09:20:34;14.90;;;9.73;;
62572;SDS011;48626;51.678;5.806;2023-08-24T09:23:00;18.63;;;10.02;;
62572;SDS011;48626;51.678;5.806;2023-08-24T09:25:26;21.25;;;9.43;;
62572;SDS011;48626;51.678;5.806;2023-08-24T09:28:02;15.18;;;8.95;;
62572;SDS011;48626;51.678;5.806;2023-08-24T09:30:36;17.45;;;8.93;;
62572;SDS011;48626;51.678;5.806;2023-08-24T09:33:12;16.17;;;9.00;;
62572;SDS011;48626;51.678;5.806;2023-08-24T09:35:38;21.05;;;8.70;;
62572;SDS011;48626;51.678;5.806;2023-08-24T09:40:46;18.30;;;9.40;;
62572;SDS011;48626;51.678;5.806;2023-08-24T09:43:16;16.10;;;9.23;;
62572;SDS011;48626;51.678;5.806;2023-08-24T09:45:51;15.15;;;8.60;;
62572;SDS011;48626;51.678;5.806;2023-08-24T09:48:19;22.10;;;9.32;;
62572;SDS011;48626;51.678;5.806;2023-08-24T09:50:45;14.77;;;9.60;;
62572;SDS011;48626;51.678;5.806;2023-08-24T09:55:54;14.20;;;8.50;;
62572;SDS011;48626;51.678;5.806;2023-08-24T09:58:24;20.48;;;8.80;;
62572;SDS011;48626;51.678;5.806;2023-08-24T10:00:50;19.38;;;9.20;;
62572;SDS011;48626;51.678;5.806;2023-08-24T10:03:20;15.18;;;8.93;;
62572;SDS011;48626;51.678;5.806;2023-08-24T10:05:56;14.05;;;8.75;;
62572;SDS011;48626;51.678;5.806;2023-08-24T10:08:26;14.63;;;8.90;;
62572;SDS011;48626;51.678;5.806;2023-08-24T10:10:56;18.13;;;9.88;;
62572;SDS011;48626;51.678;5.806;2023-08-24T10:15:56;14.15;;;8.48;;
62572;SDS011;48626;51.678;5.806;2023-08-24T10:18:25;16.77;;;9.38;;
62572;SDS011;48626;51.678;5.806;2023-08-24T10:20:52;18.00;;;10.82;;
62572;SDS011;48626;51.678;5.806;2023-08-24T10:23:17;17.73;;;9.75;;
62572;SDS011;48626;51.678;5.806;2023-08-24T10:25:46;30.05;;;10.93;;
62572;SDS011;48626;51.678;5.806;2023-08-24T10:28:14;17.40;;;10.07;;
62572;SDS011;48626;51.678;5.806;2023-08-24T10:30:43;16.48;;;9.80;;
62572;SDS011;48626;51.678;5.806;2023-08-24T10:33:11;22.10;;;9.30;;
62572;SDS011;48626;51.678;5.806;2023-08-24T10:35:39;16.20;;;10.20;;
62572;SDS011;48626;51.678;5.806;2023-08-24T10:38:05;21.30;;;10.30;;
62572;SDS011;48626;51.678;5.806;2023-08-24T10:42:57;19.50;;;9.40;;
62572;SDS011;48626;51.678;5.806;2023-08-24T10:45:27;21.48;;;9.65;;
62572;SDS011;48626;51.678;5.806;2023-08-24T10:48:23;24.52;;;9.90;;
62572;SDS011;48626;51.678;5.806;2023-08-24T10:53:53;16.90;;;9.15;;
62572;SDS011;48626;51.678;5.806;2023-08-24T10:56:30;18.90;;;9.02;;
62572;SDS011;48626;51.678;5.806;2023-08-24T10:59:10;16.55;;;9.10;;
62572;SDS011;48626;51.678;5.806;2023-08-24T11:01:41;20.27;;;8.15;;
62572;SDS011;48626;51.678;5.806;2023-08-24T11:04:07;15.80;;;8.57;;
62572;SDS011;48626;51.678;5.806;2023-08-24T11:06:33;17.15;;;9.38;;
62572;SDS011;48626;51.678;5.806;2023-08-24T11:09:06;15.30;;;9.05;;
62572;SDS011;48626;51.678;5.806;2023-08-24T11:11:39;14.35;;;8.85;;
62572;SDS011;48626;51.678;5.806;2023-08-24T11:14:15;17.92;;;8.52;;
62572;SDS011;48626;51.678;5.806;2023-08-24T11:16:45;19.55;;;8.55;;
62572;SDS011;48626;51.678;5.806;2023-08-24T11:19:12;17.45;;;8.40;;
62572;SDS011;48626;51.678;5.806;2023-08-24T11:21:39;15.32;;;8.07;;
62572;SDS011;48626;51.678;5.806;2023-08-24T11:24:05;14.38;;;7.90;;
62572;SDS011;48626;51.678;5.806;2023-08-24T11:26:32;18.00;;;7.72;;
62572;SDS011;48626;51.678;5.806;2023-08-24T11:28:59;10.20;;;6.88;;
62572;SDS011;48626;51.678;5.806;2023-08-24T11:31:25;16.85;;;6.57;;
62572;SDS011;48626;51.678;5.806;2023-08-24T11:33:54;11.48;;;6.95;;
62572;SDS011;48626;51.678;5.806;2023-08-24T11:36:21;12.18;;;6.97;;
62572;SDS011;48626;51.678;5.806;2023-08-24T11:38:51;15.02;;;7.05;;
62572;SDS011;48626;51.678;5.806;2023-08-24T11:41:20;13.65;;;6.63;;
62572;SDS011;48626;51.678;5.806;2023-08-24T11:43:48;17.08;;;7.65;;
62572;SDS011;48626;51.678;5.806;2023-08-24T11:46:23;13.65;;;7.45;;
62572;SDS011;48626;51.678;5.806;2023-08-24T11:48:49;11.88;;;8.38;;
62572;SDS011;48626;51.678;5.806;2023-08-24T11:51:15;12.68;;;7.32;;
62572;SDS011;48626;51.678;5.806;2023-08-24T11:53:42;16.50;;;7.25;;
62572;SDS011;48626;51.678;5.806;2023-08-24T11:56:09;10.32;;;6.28;;
62572;SDS011;48626;51.678;5.806;2023-08-24T11:58:41;9.63;;;5.63;;
62572;SDS011;48626;51.678;5.806;2023-08-24T12:01:09;10.15;;;6.00;;
62572;SDS011;48626;51.678;5.806;2023-08-24T12:03:37;13.05;;;5.97;;
62572;SDS011;48626;51.678;5.806;2023-08-24T12:06:13;11.57;;;6.22;;
62572;SDS011;48626;51.678;5.806;2023-08-24T12:08:40;12.43;;;5.88;;
62572;SDS011;48626;51.678;5.806;2023-08-24T12:11:16;18.63;;;6.18;;
62572;SDS011;48626;51.678;5.806;2023-08-24T12:13:46;13.30;;;6.40;;
62572;SDS011;48626;51.678;5.806;2023-08-24T12:16:17;14.47;;;6.07;;
62572;SDS011;48626;51.678;5.806;2023-08-24T12:18:49;16.35;;;6.63;;
62572;SDS011;48626;51.678;5.806;2023-08-24T12:21:17;11.00;;;5.88;;
62572;SDS011;48626;51.678;5.806;2023-08-24T12:23:44;11.25;;;5.50;;
62572;SDS011;48626;51.678;5.806;2023-08-24T12:26:19;9.00;;;5.45;;
62572;SDS011;48626;51.678;5.806;2023-08-24T12:28:48;14.07;;;6.22;;
62572;SDS011;48626;51.678;5.806;2023-08-24T12:31:16;12.45;;;5.60;;
62572;SDS011;48626;51.678;5.806;2023-08-24T12:33:43;10.32;;;5.57;;
62572;SDS011;48626;51.678;5.806;2023-08-24T12:36:09;12.65;;;6.28;;
62572;SDS011;48626;51.678;5.806;2023-08-24T12:38:35;9.05;;;5.47;;
62572;SDS011;48626;51.678;5.806;2023-08-24T12:41:01;13.55;;;5.60;;
62572;SDS011;48626;51.678;5.806;2023-08-24T12:43:26;13.43;;;6.38;;
62572;SDS011;48626;51.678;5.806;2023-08-24T12:45:52;12.60;;;6.45;;
62572;SDS011;48626;51.678;5.806;2023-08-24T12:48:18;15.15;;;6.20;;
62572;SDS011;48626;51.678;5.806;2023-08-24T12:50:43;19.45;;;6.63;;
62572;SDS011;48626;51.678;5.806;2023-08-24T12:53:09;24.02;;;7.28;;
62572;SDS011;48626;51.678;5.806;2023-08-24T12:55:36;18.30;;;7.00;;
62572;SDS011;48626;51.678;5.806;2023-08-24T12:58:04;20.40;;;6.57;;
62572;SDS011;48626;51.678;5.806;2023-08-24T13:00:30;11.18;;;6.05;;
62572;SDS011;48626;51.678;5.806;2023-08-24T13:02:56;14.27;;;6.68;;
62572;SDS011;48626;51.678;5.806;2023-08-24T13:05:22;13.73;;;6.75;;
62572;SDS011;48626;51.678;5.806;2023-08-24T13:07:51;14.68;;;7.00;;
62572;SDS011;48626;51.678;5.806;2023-08-24T13:10:16;11.77;;;6.37;;
62572;SDS011;48626;51.678;5.806;2023-08-24T13:12:42;16.92;;;6.80;;
62572;SDS011;48626;51.678;5.806;2023-08-24T13:15:08;11.40;;;6.10;;
62572;SDS011;48626;51.678;5.806;2023-08-24T13:17:36;14.52;;;6.80;;
62572;SDS011;48626;51.678;5.806;2023-08-24T13:20:01;12.88;;;6.13;;
62572;SDS011;48626;51.678;5.806;2023-08-24T13:22:28;13.32;;;6.38;;
62572;SDS011;48626;51.678;5.806;2023-08-24T13:24:54;12.32;;;6.40;;
62572;SDS011;48626;51.678;5.806;2023-08-24T13:27:19;12.73;;;6.10;;
62572;SDS011;48626;51.678;5.806;2023-08-24T13:29:45;12.45;;;6.60;;
62572;SDS011;48626;51.678;5.806;2023-08-24T13:32:11;19.25;;;7.50;;
62572;SDS011;48626;51.678;5.806;2023-08-24T13:34:36;17.75;;;6.53;;
62572;SDS011;48626;51.678;5.806;2023-08-24T13:37:02;12.50;;;6.80;;
62572;SDS011;48626;51.678;5.806;2023-08-24T13:39:29;11.27;;;6.75;;
62572;SDS011;48626;51.678;5.806;2023-08-24T13:41:58;10.00;;;6.03;;
62572;SDS011;48626;51.678;5.806;2023-08-24T13:46:50;13.27;;;5.93;;
62572;SDS011;48626;51.678;5.806;2023-08-24T13:49:19;10.55;;;5.57;;
62572;SDS011;48626;51.678;5.806;2023-08-24T13:51:45;13.15;;;6.03;;
62572;SDS011;48626;51.678;5.806;2023-08-24T13:54:15;13.82;;;5.82;;
62572;SDS011;48626;51.678;5.806;2023-08-24T13:56:43;9.20;;;5.80;;
62572;SDS011;48626;51.678;5.806;2023-08-24T13:59:10;14.25;;;5.53;;
62572;SDS011;48626;51.678;5.806;2023-08-24T14:01:36;10.98;;;5.88;;
62572;SDS011;48626;51.678;5.806;2023-08-24T14:04:02;14.45;;;5.50;;
62572;SDS011;48626;51.678;5.806;2023-08-24T14:06:29;10.82;;;5.63;;
62572;SDS011;48626;51.678;5.806;2023-08-24T14:08:56;9.98;;;5.22;;
62572;SDS011;48626;51.678;5.806;2023-08-24T14:11:22;13.93;;;5.20;;
62572;SDS011;48626;51.678;5.806;2023-08-24T14:13:48;13.13;;;5.15;;
62572;SDS011;48626;51.678;5.806;2023-08-24T14:16:14;11.70;;;5.00;;
62572;SDS011;48626;51.678;5.806;2023-08-24T14:18:40;17.08;;;5.30;;
62572;SDS011;48626;51.678;5.806;2023-08-24T14:21:08;11.30;;;5.07;;
62572;SDS011;48626;51.678;5.806;2023-08-24T14:23:35;9.85;;;5.13;;
62572;SDS011;48626;51.678;5.806;2023-08-24T14:26:01;11.25;;;4.80;;
62572;SDS011;48626;51.678;5.806;2023-08-24T14:28:26;12.20;;;4.68;;
62572;SDS011;48626;51.678;5.806;2023-08-24T14:31:16;10.18;;;4.93;;
62572;SDS011;48626;51.678;5.806;2023-08-24T14:33:42;9.23;;;4.90;;
62572;SDS011;48626;51.678;5.806;2023-08-24T14:36:08;12.98;;;5.35;;
62572;SDS011;48626;51.678;5.806;2023-08-24T14:38:35;12.35;;;5.00;;
62572;SDS011;48626;51.678;5.806;2023-08-24T14:41:00;9.50;;;4.72;;
62572;SDS011;48626;51.678;5.806;2023-08-24T14:43:28;11.82;;;4.97;;
62572;SDS011;48626;51.678;5.806;2023-08-24T14:45:54;10.85;;;5.07;;
62572;SDS011;48626;51.678;5.806;2023-08-24T14:48:19;11.82;;;5.10;;
62572;SDS011;48626;51.678;5.806;2023-08-24T14:50:45;14.52;;;5.50;;
62572;SDS011;48626;51.678;5.806;2023-08-24T14:53:11;11.90;;;4.68;;
62572;SDS011;48626;51.678;5.806;2023-08-24T14:55:40;9.55;;;4.95;;
62572;SDS011;48626;51.678;5.806;2023-08-24T14:58:06;10.23;;;4.10;;
62572;SDS011;48626;51.678;5.806;2023-08-24T15:00:32;10.15;;;4.35;;
62572;SDS011;48626;51.678;5.806;2023-08-24T15:02:59;10.27;;;3.97;;
62572;SDS011;48626;51.678;5.806;2023-08-24T15:05:24;11.32;;;4.30;;
62572;SDS011;48626;51.678;5.806;2023-08-24T15:07:50;9.13;;;4.22;;
62572;SDS011;48626;51.678;5.806;2023-08-24T15:10:16;8.05;;;4.03;;
62572;SDS011;48626;51.678;5.806;2023-08-24T15:12:43;7.63;;;4.20;;
62572;SDS011;48626;51.678;5.806;2023-08-24T15:15:11;7.35;;;3.97;;
62572;SDS011;48626;51.678;5.806;2023-08-24T15:17:42;12.57;;;4.00;;
62572;SDS011;48626;51.678;5.806;2023-08-24T15:20:08;10.60;;;4.10;;
62572;SDS011;48626;51.678;5.806;2023-08-24T15:22:34;6.65;;;3.58;;
62572;SDS011;48626;51.678;5.806;2023-08-24T15:25:00;8.80;;;3.20;;
62572;SDS011;48626;51.678;5.806;2023-08-24T15:27:27;7.72;;;3.45;;
62572;SDS011;48626;51.678;5.806;2023-08-24T15:29:53;9.02;;;3.60;;
62572;SDS011;48626;51.678;5.806;2023-08-24T15:32:19;8.73;;;3.88;;
62572;SDS011;48626;51.678;5.806;2023-08-24T15:34:46;7.22;;;3.90;;
62572;SDS011;48626;51.678;5.806;2023-08-24T15:37:12;7.95;;;3.88;;
62572;SDS011;48626;51.678;5.806;2023-08-24T15:39:39;5.90;;;3.63;;
62572;SDS011;48626;51.678;5.806;2023-08-24T15:42:06;7.40;;;3.88;;
62572;SDS011;48626;51.678;5.806;2023-08-24T15:44:32;6.25;;;3.30;;
62572;SDS011;48626;51.678;5.806;2023-08-24T15:46:59;6.00;;;3.30;;
62572;SDS011;48626;51.678;5.806;2023-08-24T15:49:25;6.63;;;3.33;;
62572;SDS011;48626;51.678;5.806;2023-08-24T15:51:51;7.10;;;3.30;;
62572;SDS011;48626;51.678;5.806;2023-08-24T15:54:18;9.40;;;3.40;;
62572;SDS011;48626;51.678;5.806;2023-08-24T15:56:43;9.60;;;3.33;;
62572;SDS011;48626;51.678;5.806;2023-08-24T15:59:11;8.23;;;3.42;;
62572;SDS011;48626;51.678;5.806;2023-08-24T16:01:37;9.75;;;3.22;;
62572;SDS011;48626;51.678;5.806;2023-08-24T16:04:03;7.25;;;3.40;;
62572;SDS011;48626;51.678;5.806;2023-08-24T16:06:30;7.15;;;3.20;;
62572;SDS011;48626;51.678;5.806;2023-08-24T16:08:56;6.55;;;3.63;;
62572;SDS011;48626;51.678;5.806;2023-08-24T16:11:22;6.20;;;3.28;;
62572;SDS011;48626;51.678;5.806;2023-08-24T16:13:47;8.77;;;3.50;;
62572;SDS011;48626;51.678;5.806;2023-08-24T16:16:13;6.22;;;3.30;;
62572;SDS011;48626;51.678;5.806;2023-08-24T16:18:39;6.90;;;3.53;;
62572;SDS011;48626;51.678;5.806;2023-08-24T16:21:05;8.25;;;3.70;;
62572;SDS011;48626;51.678;5.806;2023-08-24T16:23:33;8.35;;;3.50;;
62572;SDS011;48626;51.678;5.806;2023-08-24T16:26:25;7.25;;;3.35;;
62572;SDS011;48626;51.678;5.806;2023-08-24T16:29:03;10.38;;;3.50;;
62572;SDS011;48626;51.678;5.806;2023-08-24T16:31:33;7.55;;;3.40;;
62572;SDS011;48626;51.678;5.806;2023-08-24T16:34:10;6.55;;;3.17;;
62572;SDS011;48626;51.678;5.806;2023-08-24T16:36:46;8.27;;;3.40;;
62572;SDS011;48626;51.678;5.806;2023-08-24T16:39:18;5.32;;;3.08;;
62572;SDS011;48626;51.678;5.806;2023-08-24T16:41:43;5.25;;;2.90;;
62572;SDS011;48626;51.678;5.806;2023-08-24T16:44:16;6.15;;;3.42;;
62572;SDS011;48626;51.678;5.806;2023-08-24T16:46:51;7.55;;;3.00;;
62572;SDS011;48626;51.678;5.806;2023-08-24T16:49:20;7.97;;;3.17;;